Time;durP1;ratioP1;P1;durP2;ratioP2;P2;SDS_P1;SDS_P2;PMS_P1;PMS_P2;Temp;Humidity;BMP_temperature;BMP_pressure;BME280_temperature;BME280_humidity;BME280_pressure;Samples;Min_cycle;Max_cycle;Signal;HPM_P1;HPM_P2
2023/04/08 00:02:05;;;;;;;1.30;1.20;;;20.10;70.10;;;;;;4958669;29;20450;-88
2023/04/08 00:04:32;;;;;;;1.70;1.60;;;20.10;70.20;;;;;;4968567;29;20450;-82
2023/04/08 00:06:59;;;;;;;1.33;1.23;;;20.10;70.30;;;;;;4961206;29;20472;-81
2023/04/08 00:09:26;;;;;;;1.20;1.10;;;20.10;70.20;;;;;;4958675;29;20445;-85
2023/04/08 00:11:55;;;;;;;1.53;1.43;;;20.10;70.10;;;;;;4958567;29;20556;-89
2023/04/08 00:14:22;;;;;;;1.70;1.60;;;20.10;71.00;;;;;;4958611;29;20442;-86
2023/04/08 00:16:49;;;;;;;1.30;1.20;;;20.10;70.10;;;;;;4958490;29;20520;-88
2023/04/08 00:19:16;;;;;;;1.50;1.40;;;20.10;70.20;;;;;;4963347;29;20524;-86
2023/04/08 00:21:42;;;;;;;1.43;1.33;;;20.10;70.20;;;;;;4971995;28;20453;-82
2023/04/08 00:24:10;;;;;;;1.23;1.13;;;20.10;71.00;;;;;;4962040;29;20802;-87
2023/04/08 00:26:37;;;;;;;1.77;1.63;;;20.10;70.90;;;;;;4958305;29;20464;-89
2023/04/08 00:29:05;;;;;;;1.70;1.60;;;20.10;70.00;;;;;;4958024;28;20450;-87
2023/04/08 00:31:32;;;;;;;1.67;1.30;;;20.10;70.00;;;;;;4958025;29;20525;-88
2023/04/08 00:33:59;;;;;;;1.30;1.20;;;20.10;70.80;;;;;;4958031;29;20872;-88
2023/04/08 00:36:26;;;;;;;1.60;1.47;;;20.10;70.00;;;;;;4957637;29;20465;-82
2023/04/08 00:38:55;;;;;;;1.37;1.27;;;20.00;69.90;;;;;;4957968;29;20540;-82
2023/04/08 00:41:22;;;;;;;1.70;1.60;;;20.00;69.90;;;;;;4957803;29;20449;-82
2023/04/08 00:43:49;;;;;;;1.70;1.60;;;20.00;69.90;;;;;;4957927;29;20541;-83
2023/04/08 00:46:17;;;;;;;1.30;1.20;;;20.00;69.90;;;;;;4957648;29;20490;-83
2023/04/08 00:48:44;;;;;;;1.60;1.50;;;20.00;69.90;;;;;;4957663;29;20442;-83
2023/04/08 00:51:11;;;;;;;1.60;1.50;;;20.00;69.90;;;;;;4957841;29;20483;-83
2023/04/08 00:53:38;;;;;;;1.40;1.30;;;20.00;69.80;;;;;;4957775;29;20449;-82
2023/04/08 00:56:05;;;;;;;1.53;1.43;;;20.00;69.90;;;;;;4957766;29;20446;-88
2023/04/08 00:58:32;;;;;;;1.67;1.57;;;20.00;69.80;;;;;;4940750;29;20456;-88
2023/04/08 01:01:03;;;;;;;1.63;1.37;;;20.00;69.80;;;;;;4957449;29;20433;-82
2023/04/08 01:03:42;;;;;;;1.40;1.30;;;20.00;69.90;;;;;;4957795;29;20445;-82
2023/04/08 01:06:15;;;;;;;1.60;1.50;;;20.00;69.90;;;;;;4957277;29;20467;-85
2023/04/08 01:08:43;;;;;;;2.70;1.80;;;20.00;69.90;;;;;;4957538;29;20541;-89
2023/04/08 01:11:13;;;;;;;1.30;1.20;;;20.00;69.90;;;;;;4957576;29;20805;-83
2023/04/08 01:13:42;;;;;;;1.47;1.37;;;20.00;69.90;;;;;;4957648;29;20528;-86
2023/04/08 01:16:12;;;;;;;1.83;1.20;;;20.00;69.80;;;;;;4957190;29;20450;-85
2023/04/08 01:18:43;;;;;;;2.03;1.87;;;20.00;69.70;;;;;;4957522;29;20442;-83
2023/04/08 01:21:12;;;;;;;1.50;1.37;;;20.00;69.70;;;;;;4957178;29;20445;-82
2023/04/08 01:23:46;;;;;;;1.60;1.50;;;20.00;69.70;;;;;;4957180;29;20460;-86
2023/04/08 01:26:23;;;;;;;1.70;1.60;;;20.00;69.60;;;;;;4957027;29;20450;-83
2023/04/08 01:28:52;;;;;;;1.60;1.50;;;20.00;69.70;;;;;;4957234;29;20441;-82
2023/04/08 01:31:19;;;;;;;2.90;1.90;;;19.90;69.60;;;;;;4956761;29;20441;-89
2023/04/08 01:33:48;;;;;;;1.40;1.30;;;19.90;69.50;;;;;;4956793;29;20859;-87
2023/04/08 01:36:17;;;;;;;1.73;1.33;;;19.90;70.40;;;;;;4956545;29;20466;-82
2023/04/08 01:38:44;;;;;;;1.90;1.40;;;19.90;69.50;;;;;;4956689;29;20446;-83
2023/04/08 01:41:11;;;;;;;1.33;1.23;;;19.90;69.50;;;;;;4956383;28;20452;-82
2023/04/08 01:43:42;;;;;;;1.50;1.40;;;19.90;69.50;;;;;;4956844;29;20446;-82
2023/04/08 01:46:11;;;;;;;1.40;1.30;;;19.90;70.20;;;;;;4956689;29;20834;-82
2023/04/08 01:48:38;;;;;;;1.40;1.30;;;19.90;69.50;;;;;;4956758;29;20437;-85
2023/04/08 01:51:06;;;;;;;1.23;1.10;;;19.90;69.50;;;;;;4956757;29;20448;-87
2023/04/08 01:53:34;;;;;;;1.67;1.30;;;19.90;69.50;;;;;;4956473;29;20438;-82
2023/04/08 01:56:06;;;;;;;1.60;1.50;;;19.90;69.60;;;;;;4956422;29;20979;-82
2023/04/08 01:58:38;;;;;;;1.50;1.40;;;19.90;69.50;;;;;;4956467;29;20536;-84
2023/04/08 02:01:10;;;;;;;1.50;1.40;;;19.90;69.50;;;;;;4956312;29;20500;-82
2023/04/08 02:03:38;;;;;;;1.33;1.23;;;19.90;69.50;;;;;;4956188;29;20446;-81
2023/04/08 02:06:05;;;;;;;1.77;1.67;;;19.90;69.50;;;;;;4956094;29;20458;-81
2023/04/08 02:08:34;;;;;;;1.80;1.60;;;19.90;69.50;;;;;;4955999;29;20859;-82
2023/04/08 02:11:01;;;;;;;1.40;1.30;;;19.90;69.60;;;;;;4956042;29;20441;-82
2023/04/08 02:13:29;;;;;;;1.73;1.63;;;19.90;69.50;;;;;;4956088;29;20442;-82
2023/04/08 02:16:01;;;;;;;1.53;1.43;;;19.90;69.60;;;;;;4955984;29;20521;-82
2023/04/08 02:18:31;;;;;;;1.37;1.27;;;19.90;69.70;;;;;;4955898;29;20540;-82
2023/04/08 02:21:04;;;;;;;1.50;1.40;;;20.00;69.70;;;;;;4955801;29;20491;-82
2023/04/08 02:23:35;;;;;;;1.60;1.50;;;20.00;70.50;;;;;;4955826;29;20446;-82
2023/04/08 02:26:03;;;;;;;1.90;1.53;;;19.90;69.50;;;;;;4955699;29;20446;-82
2023/04/08 02:28:32;;;;;;;1.70;1.53;;;19.90;69.40;;;;;;4955785;29;20445;-82
2023/04/08 02:31:01;;;;;;;1.20;1.10;;;19.90;69.40;;;;;;4955889;29;20810;-82
2023/04/08 02:33:30;;;;;;;1.60;1.50;;;19.90;69.50;;;;;;4955687;29;20853;-86
2023/04/08 02:35:57;;;;;;;1.30;1.20;;;19.90;69.50;;;;;;4955466;29;20558;-88
2023/04/08 02:38:28;;;;;;;1.30;1.20;;;19.90;69.50;;;;;;4955771;29;20873;-82
2023/04/08 02:40:55;;;;;;;1.70;1.60;;;19.90;69.70;;;;;;4955498;29;20573;-83
2023/04/08 02:43:25;;;;;;;1.60;1.50;;;19.90;69.80;;;;;;4955365;29;20944;-82
2023/04/08 02:45:52;;;;;;;1.50;1.40;;;19.90;69.70;;;;;;4955183;29;20935;-82
2023/04/08 02:48:19;;;;;;;1.70;1.60;;;19.90;69.50;;;;;;4955529;29;20473;-81
2023/04/08 02:50:47;;;;;;;1.40;1.30;;;19.80;69.40;;;;;;4955397;29;20438;-81
2023/04/08 02:53:14;;;;;;;1.80;1.53;;;19.80;69.30;;;;;;4954638;28;20544;-85
2023/04/08 02:55:41;;;;;;;1.40;1.20;;;19.80;69.50;;;;;;4958856;29;20441;-81
2023/04/08 02:58:08;;;;;;;1.27;1.17;;;19.80;69.40;;;;;;4957974;29;20844;-81
2023/04/08 03:00:36;;;;;;;1.50;1.40;;;19.80;69.20;;;;;;4955141;29;20489;-82
2023/04/08 03:03:02;;;;;;;1.30;1.20;;;19.80;69.30;;;;;;4955313;29;20452;-82
2023/04/08 03:05:29;;;;;;;1.60;1.50;;;19.80;69.20;;;;;;4955220;29;20473;-82
2023/04/08 03:07:58;;;;;;;1.23;1.10;;;19.80;69.30;;;;;;4955464;29;20921;-82
2023/04/08 03:10:25;;;;;;;1.20;1.10;;;19.80;69.40;;;;;;4955194;29;20442;-89
2023/04/08 03:12:52;;;;;;;1.27;1.17;;;19.80;69.50;;;;;;4955143;29;20442;-84
2023/04/08 03:15:19;;;;;;;1.37;1.20;;;19.80;69.40;;;;;;4955254;29;20524;-83
2023/04/08 03:17:46;;;;;;;1.70;1.47;;;19.80;69.10;;;;;;4954858;29;20868;-83
2023/04/08 03:20:13;;;;;;;1.37;1.27;;;19.80;68.80;;;;;;4955101;29;20955;-82
2023/04/08 03:22:39;;;;;;;1.70;1.60;;;19.80;68.80;;;;;;4955102;29;20442;-82
2023/04/08 03:25:09;;;;;;;1.50;1.40;;;19.80;68.90;;;;;;4954941;29;20544;-82
2023/04/08 03:27:36;;;;;;;1.60;1.50;;;19.80;68.90;;;;;;4954992;29;20441;-88
2023/04/08 03:30:03;;;;;;;1.80;1.53;;;19.80;68.90;;;;;;4955026;29;21015;-82
2023/04/08 03:32:29;;;;;;;1.40;1.30;;;19.80;68.80;;;;;;4954973;29;20453;-87
2023/04/08 03:34:56;;;;;;;1.40;1.30;;;19.80;68.90;;;;;;4954772;29;20453;-82
2023/04/08 03:37:23;;;;;;;1.37;1.27;;;19.80;68.80;;;;;;4954919;29;20528;-82
2023/04/08 03:39:50;;;;;;;1.50;1.30;;;19.80;68.90;;;;;;4954729;29;20481;-86
2023/04/08 03:42:18;;;;;;;1.50;1.40;;;19.80;68.90;;;;;;4954866;29;20532;-82
2023/04/08 03:44:45;;;;;;;1.30;1.10;;;19.80;68.90;;;;;;4954815;29;20448;-81
2023/04/08 03:47:11;;;;;;;1.83;1.43;;;19.90;69.00;;;;;;4954686;29;20921;-82
2023/04/08 03:49:38;;;;;;;1.30;1.10;;;19.80;68.80;;;;;;4954707;29;20460;-82
2023/04/08 03:52:05;;;;;;;1.57;1.47;;;19.70;68.80;;;;;;4954913;29;20449;-82
2023/04/08 03:54:32;;;;;;;1.47;1.37;;;19.70;68.70;;;;;;4954843;29;20834;-82
2023/04/08 03:56:59;;;;;;;1.60;1.50;;;19.70;68.80;;;;;;4955074;29;20445;-82
2023/04/08 03:59:27;;;;;;;1.40;1.30;;;19.70;68.80;;;;;;4958366;28;20545;-82
2023/04/08 04:01:55;;;;;;;1.60;1.50;;;19.70;68.70;;;;;;4958828;29;20537;-83
2023/04/08 04:04:22;;;;;;;1.40;1.30;;;19.70;68.70;;;;;;4961676;28;20461;-80
2023/04/08 04:06:49;;;;;;;1.30;1.20;;;19.70;68.70;;;;;;4959276;29;20549;-82
2023/04/08 04:09:16;;;;;;;1.57;1.47;;;19.70;68.70;;;;;;4958657;29;20445;-81
2023/04/08 04:11:43;;;;;;;1.40;1.30;;;19.70;68.60;;;;;;4958294;29;20797;-81
2023/04/08 04:14:09;;;;;;;1.40;1.20;;;19.70;68.50;;;;;;4958282;29;20449;-81
2023/04/08 04:16:38;;;;;;;1.27;1.17;;;19.70;68.60;;;;;;4958167;29;20932;-81
2023/04/08 04:19:05;;;;;;;1.27;1.13;;;19.70;69.50;;;;;;4958084;29;20997;-81
2023/04/08 04:21:31;;;;;;;1.50;1.40;;;19.70;68.70;;;;;;4957965;29;20485;-87
2023/04/08 04:23:58;;;;;;;1.30;1.20;;;19.70;68.80;;;;;;4957877;29;20448;-82
2023/04/08 04:26:25;;;;;;;1.13;1.00;;;19.70;68.70;;;;;;4957921;29;20441;-82
2023/04/08 04:28:52;;;;;;;1.80;1.70;;;19.70;69.70;;;;;;4957872;29;20955;-82
2023/04/08 04:31:21;;;;;;;1.20;1.10;;;19.70;68.70;;;;;;4958008;29;20456;-82
2023/04/08 04:33:49;;;;;;;1.30;1.13;;;19.70;68.80;;;;;;4957855;29;20442;-88
2023/04/08 04:36:16;;;;;;;1.33;1.23;;;19.70;68.80;;;;;;4957906;29;20548;-88
2023/04/08 04:38:43;;;;;;;1.40;1.30;;;19.70;68.90;;;;;;4957637;29;20448;-82
2023/04/08 04:41:10;;;;;;;1.33;1.23;;;19.70;68.80;;;;;;4957535;29;20527;-82
2023/04/08 04:43:37;;;;;;;1.70;1.60;;;19.70;68.70;;;;;;4957651;29;20473;-82
2023/04/08 04:46:07;;;;;;;1.27;1.17;;;19.60;68.50;;;;;;4957464;29;20476;-81
2023/04/08 04:48:34;;;;;;;1.50;1.40;;;19.60;68.50;;;;;;4957660;29;20833;-81
2023/04/08 04:51:03;;;;;;;1.50;1.40;;;19.60;68.60;;;;;;4958796;29;20450;-87
2023/04/08 04:53:30;;;;;;;1.53;1.40;;;19.70;68.60;;;;;;4957484;29;20807;-81
2023/04/08 04:55:57;;;;;;;1.40;1.20;;;19.60;68.50;;;;;;4957548;29;20790;-81
2023/04/08 04:58:24;;;;;;;1.40;1.30;;;19.60;68.50;;;;;;4957403;29;20540;-82
2023/04/08 05:00:51;;;;;;;1.30;1.20;;;19.60;68.40;;;;;;4957476;29;20503;-88
2023/04/08 05:03:17;;;;;;;1.40;1.27;;;19.60;68.40;;;;;;4957494;29;20528;-89
2023/04/08 05:05:44;;;;;;;1.30;1.20;;;19.60;68.40;;;;;;4957502;29;20626;-88
2023/04/08 05:08:13;;;;;;;1.30;1.20;;;19.60;68.40;;;;;;4958720;29;20565;-83
2023/04/08 05:10:41;;;;;;;1.20;1.10;;;19.70;68.70;;;;;;4957022;29;20448;-82
2023/04/08 05:13:08;;;;;;;1.20;1.10;;;19.60;68.40;;;;;;4957330;29;20442;-82
2023/04/08 05:15:34;;;;;;;1.40;1.20;;;19.60;68.40;;;;;;4956304;28;20442;-87
2023/04/08 05:18:01;;;;;;;1.70;1.40;;;19.60;68.40;;;;;;4956829;29;20545;-84
2023/04/08 05:20:29;;;;;;;1.17;1.07;;;19.70;68.60;;;;;;4956776;29;20489;-81
2023/04/08 05:22:55;;;;;;;1.20;1.10;;;19.70;68.50;;;;;;4956702;29;20445;-81
2023/04/08 05:25:24;;;;;;;1.40;1.30;;;19.60;68.40;;;;;;4956969;29;20528;-87
2023/04/08 05:27:51;;;;;;;1.30;1.20;;;19.70;68.50;;;;;;4956904;29;20446;-86
2023/04/08 05:30:18;;;;;;;1.37;1.27;;;19.60;68.40;;;;;;4956925;29;20452;-84
2023/04/08 05:32:45;;;;;;;1.43;1.33;;;19.60;68.40;;;;;;4957134;29;20442;-80
2023/04/08 05:35:12;;;;;;;1.20;1.00;;;19.60;68.50;;;;;;4946455;29;20466;-81
2023/04/08 05:37:38;;;;;;;1.30;1.20;;;19.60;68.50;;;;;;4945016;29;20442;-81
2023/04/08 05:40:06;;;;;;;1.70;1.20;;;19.60;68.40;;;;;;4945794;29;20453;-81
2023/04/08 05:42:34;;;;;;;1.27;1.17;;;19.60;68.40;;;;;;4948918;29;20478;-85
2023/04/08 05:45:01;;;;;;;1.20;1.10;;;19.60;68.30;;;;;;4948002;29;20445;-85
2023/04/08 05:47:29;;;;;;;13.13;1.40;;;19.60;68.30;;;;;;4945750;29;20474;-83
2023/04/08 05:49:56;;;;;;;1.40;1.30;;;19.60;68.30;;;;;;4949016;29;20443;-80
2023/04/08 05:52:23;;;;;;;1.40;1.30;;;19.60;68.40;;;;;;4948323;29;20446;-81
2023/04/08 05:54:50;;;;;;;1.30;1.20;;;19.60;68.30;;;;;;4957017;29;20448;-80
2023/04/08 05:57:16;;;;;;;2.53;1.27;;;19.60;68.40;;;;;;4956778;29;20446;-81
2023/04/08 05:59:44;;;;;;;1.67;1.20;;;19.60;68.50;;;;;;4956698;29;20448;-81
2023/04/08 06:02:11;;;;;;;1.57;1.47;;;19.60;68.50;;;;;;4956696;29;20497;-81
2023/04/08 06:04:38;;;;;;;2.20;1.63;;;19.60;68.40;;;;;;4956374;29;20454;-81
2023/04/08 06:07:07;;;;;;;8.93;1.57;;;19.60;66.20;;;;;;4956326;29;20487;-87
2023/04/08 06:09:35;;;;;;;1.53;1.43;;;19.60;67.60;;;;;;4956629;29;20449;-87
2023/04/08 06:12:02;;;;;;;3.30;1.20;;;19.60;68.30;;;;;;4956185;29;20522;-82
2023/04/08 06:14:29;;;;;;;3.63;1.70;;;19.60;68.40;;;;;;4955695;29;20526;-81
2023/04/08 06:16:57;;;;;;;1.57;1.47;;;19.60;68.40;;;;;;4955115;29;20937;-86
2023/04/08 06:19:24;;;;;;;7.30;1.57;;;19.60;68.50;;;;;;4955665;29;20454;-81
2023/04/08 06:21:51;;;;;;;2.23;1.73;;;19.60;68.70;;;;;;4955869;29;20588;-81
2023/04/08 06:24:18;;;;;;;1.60;1.50;;;19.80;69.00;;;;;;4955938;29;20442;-82
2023/04/08 06:26:45;;;;;;;2.63;1.40;;;19.70;68.60;;;;;;4955810;28;21073;-81
2023/04/08 06:29:11;;;;;;;3.40;1.40;;;19.70;69.00;;;;;;4955313;29;20442;-86
2023/04/08 06:31:38;;;;;;;1.77;1.30;;;19.70;69.00;;;;;;4956119;29;21017;-83
2023/04/08 06:34:06;;;;;;;1.30;1.20;;;19.70;69.20;;;;;;4946190;29;20996;-82
2023/04/08 06:36:33;;;;;;;2.10;1.93;;;19.70;69.30;;;;;;4936860;29;20549;-82
2023/04/08 06:39:00;;;;;;;3.27;1.47;;;19.70;69.00;;;;;;4936474;29;20443;-82
2023/04/08 06:41:27;;;;;;;1.80;1.57;;;19.70;69.00;;;;;;4936615;29;20490;-86
2023/04/08 06:43:54;;;;;;;1.70;1.27;;;19.70;69.00;;;;;;4936548;29;20443;-86
2023/04/08 06:46:20;;;;;;;1.37;1.17;;;19.70;69.00;;;;;;4936443;29;20886;-82
2023/04/08 06:48:47;;;;;;;1.73;1.63;;;19.70;69.00;;;;;;4936613;29;20457;-86
2023/04/08 06:51:15;;;;;;;1.47;1.37;;;19.70;69.00;;;;;;4936751;29;20789;-82
2023/04/08 06:53:42;;;;;;;2.13;1.53;;;19.80;69.20;;;;;;4936607;29;20450;-86
2023/04/08 06:56:10;;;;;;;1.87;1.30;;;19.70;69.10;;;;;;4936569;29;20446;-85
2023/04/08 06:58:36;;;;;;;1.50;1.40;;;19.70;69.20;;;;;;4936470;29;20762;-86
2023/04/08 07:01:03;;;;;;;1.77;1.40;;;19.80;70.00;;;;;;4936488;29;20493;-84
2023/04/08 07:03:30;;;;;;;1.40;1.30;;;19.80;69.30;;;;;;4936525;29;20543;-82
2023/04/08 07:05:57;;;;;;;2.37;1.40;;;19.90;69.40;;;;;;4936128;29;20498;-87
2023/04/08 07:08:26;;;;;;;2.80;1.43;;;19.80;69.20;;;;;;4936342;29;20532;-82
2023/04/08 07:10:52;;;;;;;1.60;1.50;;;19.80;69.10;;;;;;4937014;29;20470;-82
2023/04/08 07:13:19;;;;;;;1.40;1.30;;;19.80;69.30;;;;;;4936597;29;20442;-84
2023/04/08 07:15:46;;;;;;;2.50;1.40;;;19.80;69.30;;;;;;4936158;29;20442;-82
2023/04/08 07:18:13;;;;;;;3.30;1.27;;;19.80;69.20;;;;;;4935891;29;20451;-82
2023/04/08 07:20:42;;;;;;;1.30;1.10;;;19.80;69.20;;;;;;4937444;29;20466;-93
2023/04/08 07:23:09;;;;;;;1.67;1.43;;;19.80;68.90;;;;;;4938117;29;20526;-88
2023/04/08 07:25:37;;;;;;;1.47;1.37;;;19.80;69.10;;;;;;4937039;29;20447;-88
2023/04/08 07:28:04;;;;;;;3.10;1.50;;;19.90;69.10;;;;;;4939780;29;20493;-87
2023/04/08 07:30:32;;;;;;;5.00;1.87;;;19.90;68.50;;;;;;4936687;29;20917;-88
2023/04/08 07:32:59;;;;;;;1.30;1.20;;;19.90;68.60;;;;;;4936140;29;20450;-88
2023/04/08 07:35:30;;;;;;;3.20;1.60;;;19.90;68.90;;;;;;4937254;29;20915;-87
2023/04/08 07:37:57;;;;;;;4.57;2.13;;;19.90;68.90;;;;;;4922670;29;20506;-86
2023/04/08 07:40:24;;;;;;;2.00;1.80;;;19.90;68.90;;;;;;4940081;29;20450;-87
2023/04/08 07:42:53;;;;;;;2.87;2.07;;;19.90;69.80;;;;;;4939831;29;20581;-88
2023/04/08 07:45:20;;;;;;;1.67;1.57;;;20.00;69.10;;;;;;4939961;29;20533;-87
2023/04/08 07:47:47;;;;;;;2.63;1.70;;;19.90;69.00;;;;;;4939973;29;20481;-91
2023/04/08 07:50:14;;;;;;;1.67;1.57;;;19.90;68.50;;;;;;4944484;29;20462;-86
2023/04/08 07:52:41;;;;;;;1.50;1.37;;;19.90;68.00;;;;;;4950291;29;20574;-85
2023/04/08 07:55:23;;;;;;;2.10;1.13;;;20.00;68.40;;;;;;4958667;29;20951;-93
2023/04/08 07:57:52;;;;;;;3.20;1.60;;;20.10;68.40;;;;;;4953907;29;20458;-84
2023/04/08 08:00:20;;;;;;;2.90;1.60;;;20.00;66.70;;;;;;4958797;29;20453;-82
2023/04/08 08:02:47;;;;;;;2.90;1.63;;;20.00;66.90;;;;;;4958540;29;20528;-84
2023/04/08 08:05:14;;;;;;;4.60;1.93;;;20.00;67.10;;;;;;4958234;29;20501;-85
2023/04/08 08:07:41;;;;;;;1.60;1.50;;;20.00;67.40;;;;;;4958400;29;20446;-85
2023/04/08 08:10:09;;;;;;;3.03;1.57;;;20.00;67.50;;;;;;4958370;29;20449;-85
2023/04/08 08:12:36;;;;;;;4.17;1.77;;;20.00;67.40;;;;;;4957892;29;21027;-86
2023/04/08 08:15:05;;;;;;;2.23;1.63;;;20.00;67.60;;;;;;4958274;29;20468;-83
2023/04/08 08:17:32;;;;;;;1.53;1.43;;;20.00;68.00;;;;;;4960005;29;20446;-85
2023/04/08 08:19:59;;;;;;;3.73;1.90;;;20.00;68.00;;;;;;4956901;29;20446;-85
2023/04/08 08:22:26;;;;;;;4.33;1.80;;;20.00;68.10;;;;;;4958518;29;20532;-86
2023/04/08 08:24:56;;;;;;;4.43;1.77;;;20.00;68.00;;;;;;4958187;29;20454;-84
2023/04/08 08:27:23;;;;;;;2.63;1.47;;;20.00;68.00;;;;;;4959321;29;20500;-86
2023/04/08 08:29:51;;;;;;;4.20;2.80;;;20.00;68.10;;;;;;4958136;29;20449;-85
2023/04/08 08:32:19;;;;;;;7.07;5.60;;;20.00;68.20;;;;;;4959606;29;20446;-84
2023/04/08 08:34:46;;;;;;;8.10;4.27;;;20.00;68.20;;;;;;4957903;29;20496;-86
2023/04/08 08:37:13;;;;;;;7.23;4.60;;;20.00;68.40;;;;;;4958042;29;20461;-86
2023/04/08 08:39:40;;;;;;;10.60;5.90;;;20.00;68.60;;;;;;4959943;29;20446;-86
2023/04/08 08:42:07;;;;;;;4.37;3.97;;;20.00;68.80;;;;;;4957866;29;20489;-86
2023/04/08 08:44:34;;;;;;;10.13;5.10;;;20.00;68.20;;;;;;4959234;29;20456;-85
2023/04/08 08:47:01;;;;;;;5.87;5.07;;;20.00;68.40;;;;;;4942418;29;20573;-88
2023/04/08 08:49:30;;;;;;;5.07;4.57;;;20.00;68.80;;;;;;4960851;28;20941;-85
2023/04/08 08:51:58;;;;;;;5.30;4.70;;;20.00;69.00;;;;;;4972999;29;20450;-84
2023/04/08 08:54:27;;;;;;;17.53;7.63;;;20.00;69.30;;;;;;4971271;29;20450;-84
2023/04/08 08:56:54;;;;;;;16.30;8.40;;;20.00;70.00;;;;;;4965360;29;20446;-85
2023/04/08 08:59:22;;;;;;;17.27;11.90;;;20.00;70.10;;;;;;4957993;29;20537;-84
2023/04/08 09:01:49;;;;;;;20.60;12.00;;;20.00;71.50;;;;;;4957972;29;20489;-85
2023/04/08 09:04:18;;;;;;;12.40;8.67;;;20.10;72.70;;;;;;4957562;29;20457;-84
2023/04/08 09:06:48;;;;;;;15.80;9.20;;;20.10;73.60;;;;;;4957517;29;20502;-85
2023/04/08 09:09:15;;;;;;;16.53;6.00;;;20.10;73.70;;;;;;4957067;29;20460;-83
2023/04/08 09:11:45;;;;;;;6.10;4.37;;;20.10;72.50;;;;;;4957694;29;20460;-84
2023/04/08 09:14:19;;;;;;;9.90;4.30;;;20.10;69.70;;;;;;4941972;29;20469;-83
2023/04/08 09:16:48;;;;;;;8.63;4.03;;;20.10;68.10;;;;;;4957903;29;20454;-93
2023/04/08 09:19:15;;;;;;;4.90;3.60;;;20.10;67.70;;;;;;4940994;29;20445;-93
2023/04/08 09:21:42;;;;;;;10.00;5.27;;;20.10;67.70;;;;;;4941229;29;21109;-91
2023/04/08 09:27:48;;;;;;;7.87;3.50;;;20.10;67.80;;;;;;4879802;29;20526;-82
2023/04/08 09:30:15;;;;;;;11.03;5.20;;;20.10;67.90;;;;;;4957336;29;20945;-88
2023/04/08 09:32:48;;;;;;;9.37;4.93;;;20.10;68.50;;;;;;4957062;29;20481;-90
2023/04/08 09:35:16;;;;;;;10.70;4.83;;;20.20;70.10;;;;;;4956684;29;20964;-90
2023/04/08 09:37:47;;;;;;;11.13;5.77;;;20.00;70.50;;;;;;4961606;29;20476;-89
2023/04/08 09:40:15;;;;;;;5.07;4.27;;;20.10;70.80;;;;;;4958145;29;20485;-90
2023/04/08 09:42:47;;;;;;;13.20;7.43;;;20.10;71.10;;;;;;4957148;29;20481;-89
2023/04/08 09:45:18;;;;;;;16.43;9.53;;;20.10;71.40;;;;;;4957150;29;20442;-89
2023/04/08 09:47:56;;;;;;;16.20;7.80;;;20.10;72.80;;;;;;4957417;29;20525;-83
2023/04/08 09:50:27;;;;;;;13.13;7.33;;;20.10;71.70;;;;;;4957595;29;20445;-90
2023/04/08 09:53:00;;;;;;;16.80;7.23;;;19.90;70.90;;;;;;4956585;29;20528;-89
2023/04/08 09:55:32;;;;;;;12.47;7.30;;;20.10;72.10;;;;;;4956757;29;20453;-89
2023/04/08 09:58:02;;;;;;;12.37;6.97;;;20.10;72.30;;;;;;4956999;29;20451;-90
2023/04/08 10:00:34;;;;;;;12.00;8.20;;;20.10;72.50;;;;;;4956659;29;20439;-89
2023/04/08 10:03:07;;;;;;;7.70;6.90;;;20.10;72.60;;;;;;4959337;29;20473;-89
2023/04/08 10:05:38;;;;;;;10.67;7.60;;;20.10;72.80;;;;;;4957557;29;20473;-91
2023/04/08 10:08:06;;;;;;;12.70;7.40;;;20.10;72.80;;;;;;4957843;29;20450;-91
2023/04/08 10:10:34;;;;;;;10.23;6.70;;;20.10;73.00;;;;;;4956755;29;20496;-91
2023/04/08 10:13:01;;;;;;;13.37;7.00;;;20.10;73.40;;;;;;4961909;28;20458;-92
2023/04/08 10:15:31;;;;;;;16.53;6.80;;;20.10;73.20;;;;;;4956480;29;20512;-91
2023/04/08 10:18:32;;;;;;;10.83;6.33;;;20.20;74.00;;;;;;4956539;29;20489;-90
2023/04/08 10:20:59;;;;;;;10.20;7.07;;;20.10;74.90;;;;;;4956423;29;20432;-90
2023/04/08 10:23:57;;;;;;;13.07;6.67;;;20.10;74.20;;;;;;4960469;29;20493;-90
2023/04/08 10:26:32;;;;;;;13.60;6.77;;;20.10;75.00;;;;;;4957411;29;20868;-91
2023/04/08 10:29:45;;;;;;;11.90;6.03;;;20.10;75.30;;;;;;4956874;29;20441;-93
2023/04/08 10:32:40;;;;;;;8.03;5.87;;;20.10;75.40;;;;;;4963630;29;20449;-90
2023/04/08 10:35:07;;;;;;;7.93;5.43;;;20.10;73.20;;;;;;4956197;29;20469;-90
2023/04/08 10:37:34;;;;;;;6.80;5.50;;;20.10;74.80;;;;;;4955971;29;20933;-90
2023/04/08 10:40:01;;;;;;;8.30;6.00;;;20.10;75.00;;;;;;4961223;28;20879;-89
2023/04/08 10:42:29;;;;;;;10.60;5.53;;;20.10;74.90;;;;;;4955870;29;20832;-85
2023/04/08 10:45:01;;;;;;;7.20;4.23;;;20.10;75.20;;;;;;4955916;29;20454;-86
2023/04/08 10:47:28;;;;;;;4.80;3.40;;;20.10;73.00;;;;;;4955800;29;20822;-88
2023/04/08 10:49:57;;;;;;;9.97;3.77;;;20.10;69.50;;;;;;4957238;29;20509;-83
2023/04/08 10:52:26;;;;;;;8.33;4.00;;;20.10;69.20;;;;;;4962910;29;20487;-85
2023/04/08 10:54:53;;;;;;;4.70;4.20;;;20.10;72.10;;;;;;4957810;29;20446;-85
2023/04/08 10:57:24;;;;;;;5.73;4.27;;;20.10;73.20;;;;;;4955779;29;20472;-80
2023/04/08 10:59:51;;;;;;;4.20;3.30;;;20.20;73.40;;;;;;4955722;29;20544;-87
2023/04/08 11:02:18;;;;;;;8.80;4.30;;;20.20;71.20;;;;;;4955429;29;20480;-81
2023/04/08 11:04:47;;;;;;;4.87;4.00;;;20.20;72.90;;;;;;4955136;29;20466;-85
2023/04/08 11:07:15;;;;;;;7.27;4.40;;;20.20;73.90;;;;;;4955235;29;20814;-86
2023/04/08 11:09:42;;;;;;;4.77;3.80;;;20.30;73.70;;;;;;4955180;29;20442;-84
2023/04/08 11:12:09;;;;;;;7.80;4.10;;;20.30;73.80;;;;;;4954992;29;20450;-87
2023/04/08 11:14:37;;;;;;;6.27;3.60;;;20.30;73.80;;;;;;4954232;29;20449;-85
2023/04/08 11:17:04;;;;;;;6.00;3.47;;;20.30;73.80;;;;;;4954032;29;20819;-84
2023/04/08 11:19:32;;;;;;;5.63;3.60;;;20.30;73.80;;;;;;4955303;29;20524;-86
2023/04/08 11:21:58;;;;;;;6.83;3.77;;;20.30;73.70;;;;;;4955431;29;20596;-85
2023/04/08 11:24:27;;;;;;;6.30;3.40;;;20.30;74.70;;;;;;4955459;29;20434;-86
2023/04/08 11:26:55;;;;;;;3.93;3.53;;;20.30;74.60;;;;;;4955615;29;20456;-86
2023/04/08 11:29:22;;;;;;;5.73;3.60;;;20.30;74.20;;;;;;4955415;29;20476;-87
2023/04/08 11:31:50;;;;;;;8.50;3.57;;;20.50;74.20;;;;;;4955546;29;20446;-86
2023/04/08 11:34:23;;;;;;;5.20;3.40;;;20.40;74.00;;;;;;4955477;29;20541;-87
2023/04/08 11:36:50;;;;;;;5.90;3.43;;;20.40;74.20;;;;;;4956116;29;20803;-86
2023/04/08 11:39:17;;;;;;;5.83;2.90;;;20.40;73.90;;;;;;4938270;29;20956;-86
2023/04/08 11:41:46;;;;;;;3.17;2.43;;;20.40;73.80;;;;;;4960308;29;20561;-86
2023/04/08 11:44:12;;;;;;;3.43;2.90;;;20.40;73.90;;;;;;4954925;29;20454;-86
2023/04/08 11:46:41;;;;;;;4.07;2.73;;;20.40;73.90;;;;;;4955305;29;20473;-86
2023/04/08 11:49:09;;;;;;;3.67;3.23;;;20.40;74.10;;;;;;4955522;29;20797;-86
2023/04/08 11:51:53;;;;;;;3.90;2.67;;;20.40;74.10;;;;;;4955382;29;20917;-86
2023/04/08 11:54:27;;;;;;;3.33;3.10;;;20.40;74.10;;;;;;4955372;29;20442;-86
2023/04/08 11:56:57;;;;;;;4.47;2.60;;;20.40;74.20;;;;;;4955213;29;20497;-86
2023/04/08 11:59:23;;;;;;;4.13;3.33;;;20.50;74.20;;;;;;4955034;29;21008;-86
2023/04/08 12:01:52;;;;;;;2.83;2.33;;;20.40;74.00;;;;;;4955089;29;20446;-86
2023/04/08 12:04:19;;;;;;;4.73;3.00;;;20.50;74.00;;;;;;4954896;29;20448;-84
2023/04/08 12:06:47;;;;;;;3.63;2.43;;;20.50;73.80;;;;;;4955047;29;20429;-89
2023/04/08 12:09:14;;;;;;;3.07;2.70;;;20.50;70.70;;;;;;4955559;29;20453;-88
2023/04/08 12:11:41;;;;;;;3.67;2.30;;;20.60;73.60;;;;;;4954888;29;20453;-81
2023/04/08 12:14:09;;;;;;;6.40;2.90;;;20.50;70.90;;;;;;4954922;29;20437;-84
2023/04/08 12:16:36;;;;;;;7.63;2.47;;;20.50;72.50;;;;;;4955295;29;20457;-84
2023/04/08 12:19:03;;;;;;;3.53;2.73;;;20.40;72.80;;;;;;4954653;29;20450;-84
2023/04/08 12:21:31;;;;;;;3.50;2.20;;;20.40;72.90;;;;;;4955035;29;20456;-84
2023/04/08 12:23:57;;;;;;;2.20;1.93;;;20.40;72.80;;;;;;4954925;28;20815;-84
2023/04/08 12:26:25;;;;;;;4.47;2.83;;;20.40;72.90;;;;;;4958263;29;20438;-84
2023/04/08 12:28:52;;;;;;;2.67;2.20;;;20.40;72.50;;;;;;4958195;29;20846;-84
2023/04/08 12:31:22;;;;;;;7.93;2.40;;;20.40;72.90;;;;;;4958055;29;20548;-84
2023/04/08 12:33:48;;;;;;;6.07;2.37;;;20.40;72.90;;;;;;4958265;29;20454;-83
2023/04/08 12:36:16;;;;;;;2.20;2.00;;;20.40;73.00;;;;;;4957886;29;20473;-83
2023/04/08 12:38:42;;;;;;;2.47;2.23;;;20.40;73.20;;;;;;4957953;29;20449;-84
2023/04/08 12:41:11;;;;;;;5.60;2.40;;;20.40;72.80;;;;;;4941177;29;20457;-83
2023/04/08 12:43:38;;;;;;;5.33;2.27;;;20.40;73.10;;;;;;4958056;29;20493;-84
2023/04/08 12:46:05;;;;;;;2.63;2.07;;;20.40;73.20;;;;;;4940698;29;20477;-83
2023/04/08 12:48:33;;;;;;;3.10;1.93;;;20.40;73.20;;;;;;4957607;29;20464;-84
2023/04/08 12:51:02;;;;;;;2.37;2.00;;;20.40;73.20;;;;;;4957362;29;20461;-84
2023/04/08 12:53:28;;;;;;;3.13;2.07;;;20.40;73.20;;;;;;4957504;29;20453;-83
2023/04/08 12:55:56;;;;;;;2.20;1.97;;;20.40;73.10;;;;;;4957480;29;20453;-84